Capitol Logistics 7492

Operating for MZN



KJFK
John F Kennedy International Airport
New York, New York
KPHX
Phoenix Sky Harbor International Airport
Phoenix, Arizona

Activity Log

Date Flight Route Aircraft Duration
No Flights Yet

Route Details

Aircraft Information
Primary: Boeing 767-300BDSF
Backup: Boeing 757-200SF
Route Data
Distance: 2151nm
Duration: 5h 05m
Recm'd Route: RBV Q430 VINSE Q430 AIR J110 STL J19 ROKNE J19 ZUN EAGUL6
Origin Wx: KJFK 180251Z 04003KT 10SM OVC060 11/02 A2983 RMK AO2 SLP100 T01060022 50009
Dest. Wx: KPHX 180251Z 30015KT 10SM FEW140 FEW290 27/M08 A2979 RMK AO2 SLP075 T02671078 53009
Notes: